sensor_id;sensor_type;location;lat;lon;timestamp;P1;durP1;ratioP1;P2;durP2;ratioP2
59310;SDS011;45078;51.654;21.250;2022-10-16T00:01:28;24.30;;;12.35;;
59310;SDS011;45078;51.654;21.250;2022-10-16T00:03:55;21.15;;;11.57;;
59310;SDS011;45078;51.654;21.250;2022-10-16T00:06:22;23.63;;;11.85;;
59310;SDS011;45078;51.654;21.250;2022-10-16T00:08:48;26.10;;;13.30;;
59310;SDS011;45078;51.654;21.250;2022-10-16T00:11:15;27.05;;;13.50;;
59310;SDS011;45078;51.654;21.250;2022-10-16T00:13:50;22.23;;;11.88;;
59310;SDS011;45078;51.654;21.250;2022-10-16T00:16:17;26.23;;;13.20;;
59310;SDS011;45078;51.654;21.250;2022-10-16T00:18:43;26.60;;;12.57;;
59310;SDS011;45078;51.654;21.250;2022-10-16T00:21:14;29.63;;;12.70;;
59310;SDS011;45078;51.654;21.250;2022-10-16T00:23:44;23.55;;;12.38;;
59310;SDS011;45078;51.654;21.250;2022-10-16T00:26:13;25.95;;;13.18;;
59310;SDS011;45078;51.654;21.250;2022-10-16T00:28:40;23.90;;;13.45;;
59310;SDS011;45078;51.654;21.250;2022-10-16T00:31:07;24.35;;;11.98;;
59310;SDS011;45078;51.654;21.250;2022-10-16T00:33:36;28.35;;;14.75;;
59310;SDS011;45078;51.654;21.250;2022-10-16T00:36:03;23.65;;;13.05;;
59310;SDS011;45078;51.654;21.250;2022-10-16T00:38:30;22.80;;;12.77;;
59310;SDS011;45078;51.654;21.250;2022-10-16T00:40:56;19.80;;;10.70;;
59310;SDS011;45078;51.654;21.250;2022-10-16T00:46:48;24.15;;;12.00;;
59310;SDS011;45078;51.654;21.250;2022-10-16T00:49:05;25.17;;;12.68;;
59310;SDS011;45078;51.654;21.250;2022-10-16T00:51:39;23.65;;;11.85;;
59310;SDS011;45078;51.654;21.250;2022-10-16T00:54:08;27.47;;;12.00;;
59310;SDS011;45078;51.654;21.250;2022-10-16T00:56:55;22.77;;;11.13;;
59310;SDS011;45078;51.654;21.250;2022-10-16T00:59:26;22.00;;;12.10;;
59310;SDS011;45078;51.654;21.250;2022-10-16T01:01:54;25.33;;;12.32;;
59310;SDS011;45078;51.654;21.250;2022-10-16T01:04:21;18.60;;;9.90;;
59310;SDS011;45078;51.654;21.250;2022-10-16T01:09:47;22.45;;;11.10;;
59310;SDS011;45078;51.654;21.250;2022-10-16T01:12:38;21.25;;;11.38;;
59310;SDS011;45078;51.654;21.250;2022-10-16T01:18:13;24.38;;;10.82;;
59310;SDS011;45078;51.654;21.250;2022-10-16T01:23:48;25.17;;;11.20;;
59310;SDS011;45078;51.654;21.250;2022-10-16T01:37:46;19.45;;;10.57;;
59310;SDS011;45078;51.654;21.250;2022-10-16T01:40:19;18.77;;;9.55;;
59310;SDS011;45078;51.654;21.250;2022-10-16T01:42:50;21.25;;;9.77;;
59310;SDS011;45078;51.654;21.250;2022-10-16T01:45:20;23.75;;;11.10;;
59310;SDS011;45078;51.654;21.250;2022-10-16T01:47:47;19.27;;;9.75;;
59310;SDS011;45078;51.654;21.250;2022-10-16T01:50:15;22.75;;;10.20;;
59310;SDS011;45078;51.654;21.250;2022-10-16T01:52:44;25.23;;;11.00;;
59310;SDS011;45078;51.654;21.250;2022-10-16T01:55:16;23.60;;;10.60;;
59310;SDS011;45078;51.654;21.250;2022-10-16T01:57:45;19.67;;;10.30;;
59310;SDS011;45078;51.654;21.250;2022-10-16T02:00:14;20.20;;;11.18;;
59310;SDS011;45078;51.654;21.250;2022-10-16T02:02:44;17.02;;;10.23;;
59310;SDS011;45078;51.654;21.250;2022-10-16T02:08:18;18.90;;;10.35;;
59310;SDS011;45078;51.654;21.250;2022-10-16T02:10:44;20.95;;;10.07;;
59310;SDS011;45078;51.654;21.250;2022-10-16T02:13:12;20.25;;;9.75;;
59310;SDS011;45078;51.654;21.250;2022-10-16T02:15:54;22.90;;;11.40;;
59310;SDS011;45078;51.654;21.250;2022-10-16T02:18:20;20.40;;;10.80;;
59310;SDS011;45078;51.654;21.250;2022-10-16T02:23:35;21.45;;;11.32;;
59310;SDS011;45078;51.654;21.250;2022-10-16T02:26:07;19.88;;;11.02;;
59310;SDS011;45078;51.654;21.250;2022-10-16T02:31:16;18.50;;;10.10;;
59310;SDS011;45078;51.654;21.250;2022-10-16T02:33:47;23.92;;;11.23;;
59310;SDS011;45078;51.654;21.250;2022-10-16T02:36:16;21.48;;;10.55;;
59310;SDS011;45078;51.654;21.250;2022-10-16T02:38:41;20.08;;;10.27;;
59310;SDS011;45078;51.654;21.250;2022-10-16T02:41:07;19.83;;;11.15;;
59310;SDS011;45078;51.654;21.250;2022-10-16T02:43:33;20.23;;;9.95;;
59310;SDS011;45078;51.654;21.250;2022-10-16T02:45:59;19.95;;;10.00;;
59310;SDS011;45078;51.654;21.250;2022-10-16T02:48:25;21.40;;;10.60;;
59310;SDS011;45078;51.654;21.250;2022-10-16T02:50:51;21.23;;;11.07;;
59310;SDS011;45078;51.654;21.250;2022-10-16T02:53:17;20.38;;;10.63;;
59310;SDS011;45078;51.654;21.250;2022-10-16T02:55:43;20.40;;;9.75;;
59310;SDS011;45078;51.654;21.250;2022-10-16T02:58:08;17.33;;;10.13;;
59310;SDS011;45078;51.654;21.250;2022-10-16T03:00:34;20.73;;;10.07;;
59310;SDS011;45078;51.654;21.250;2022-10-16T03:03:00;23.33;;;9.35;;
59310;SDS011;45078;51.654;21.250;2022-10-16T03:05:26;16.83;;;9.82;;
59310;SDS011;45078;51.654;21.250;2022-10-16T03:07:52;17.75;;;9.35;;
59310;SDS011;45078;51.654;21.250;2022-10-16T03:10:18;19.83;;;10.15;;
59310;SDS011;45078;51.654;21.250;2022-10-16T03:12:44;17.67;;;9.35;;
59310;SDS011;45078;51.654;21.250;2022-10-16T03:15:09;17.17;;;10.13;;
59310;SDS011;45078;51.654;21.250;2022-10-16T03:17:35;23.30;;;10.13;;
59310;SDS011;45078;51.654;21.250;2022-10-16T03:20:02;19.38;;;8.43;;
59310;SDS011;45078;51.654;21.250;2022-10-16T03:22:28;20.13;;;10.23;;
59310;SDS011;45078;51.654;21.250;2022-10-16T03:24:54;18.98;;;9.50;;
59310;SDS011;45078;51.654;21.250;2022-10-16T03:27:20;16.92;;;9.60;;
59310;SDS011;45078;51.654;21.250;2022-10-16T03:29:46;17.15;;;9.48;;
59310;SDS011;45078;51.654;21.250;2022-10-16T03:32:12;18.92;;;9.52;;
59310;SDS011;45078;51.654;21.250;2022-10-16T03:34:37;15.93;;;9.18;;
59310;SDS011;45078;51.654;21.250;2022-10-16T03:37:03;22.10;;;9.57;;
59310;SDS011;45078;51.654;21.250;2022-10-16T03:39:29;18.38;;;9.35;;
59310;SDS011;45078;51.654;21.250;2022-10-16T03:41:55;17.70;;;9.43;;
59310;SDS011;45078;51.654;21.250;2022-10-16T03:44:21;16.00;;;8.93;;
59310;SDS011;45078;51.654;21.250;2022-10-16T03:46:47;17.77;;;9.93;;
59310;SDS011;45078;51.654;21.250;2022-10-16T03:49:12;20.20;;;9.27;;
59310;SDS011;45078;51.654;21.250;2022-10-16T03:51:38;16.65;;;9.52;;
59310;SDS011;45078;51.654;21.250;2022-10-16T03:54:04;19.77;;;10.10;;
59310;SDS011;45078;51.654;21.250;2022-10-16T03:56:30;20.67;;;9.75;;
59310;SDS011;45078;51.654;21.250;2022-10-16T03:58:55;18.98;;;10.05;;
59310;SDS011;45078;51.654;21.250;2022-10-16T04:01:21;17.63;;;9.93;;
59310;SDS011;45078;51.654;21.250;2022-10-16T04:03:47;17.20;;;9.38;;
59310;SDS011;45078;51.654;21.250;2022-10-16T04:06:16;14.95;;;8.27;;
59310;SDS011;45078;51.654;21.250;2022-10-16T04:08:42;20.67;;;9.35;;
59310;SDS011;45078;51.654;21.250;2022-10-16T04:11:09;19.35;;;9.20;;
59310;SDS011;45078;51.654;21.250;2022-10-16T04:13:34;16.95;;;9.15;;
59310;SDS011;45078;51.654;21.250;2022-10-16T04:16:01;18.23;;;9.43;;
59310;SDS011;45078;51.654;21.250;2022-10-16T04:18:27;21.98;;;10.10;;
59310;SDS011;45078;51.654;21.250;2022-10-16T04:20:53;19.48;;;9.05;;
59310;SDS011;45078;51.654;21.250;2022-10-16T04:23:19;17.45;;;8.95;;
59310;SDS011;45078;51.654;21.250;2022-10-16T04:25:45;15.73;;;7.82;;
59310;SDS011;45078;51.654;21.250;2022-10-16T04:28:10;16.75;;;8.98;;
59310;SDS011;45078;51.654;21.250;2022-10-16T04:30:39;17.80;;;9.57;;
59310;SDS011;45078;51.654;21.250;2022-10-16T04:33:06;15.57;;;6.85;;
59310;SDS011;45078;51.654;21.250;2022-10-16T04:35:33;16.70;;;9.32;;
59310;SDS011;45078;51.654;21.250;2022-10-16T04:37:59;15.63;;;8.52;;
59310;SDS011;45078;51.654;21.250;2022-10-16T04:40:25;19.48;;;8.48;;
59310;SDS011;45078;51.654;21.250;2022-10-16T04:42:51;15.02;;;9.02;;
59310;SDS011;45078;51.654;21.250;2022-10-16T04:45:16;20.90;;;9.65;;
59310;SDS011;45078;51.654;21.250;2022-10-16T04:47:42;18.15;;;8.98;;
59310;SDS011;45078;51.654;21.250;2022-10-16T04:50:08;15.90;;;8.82;;
59310;SDS011;45078;51.654;21.250;2022-10-16T04:52:34;16.02;;;8.60;;
59310;SDS011;45078;51.654;21.250;2022-10-16T04:55:00;20.35;;;8.52;;
59310;SDS011;45078;51.654;21.250;2022-10-16T04:57:28;15.27;;;8.68;;
59310;SDS011;45078;51.654;21.250;2022-10-16T04:59:54;14.75;;;8.63;;
59310;SDS011;45078;51.654;21.250;2022-10-16T05:02:20;19.92;;;8.63;;
59310;SDS011;45078;51.654;21.250;2022-10-16T05:04:46;17.23;;;8.73;;
59310;SDS011;45078;51.654;21.250;2022-10-16T05:07:11;14.85;;;8.68;;
59310;SDS011;45078;51.654;21.250;2022-10-16T05:09:37;15.25;;;8.95;;
59310;SDS011;45078;51.654;21.250;2022-10-16T05:12:03;18.55;;;9.00;;
59310;SDS011;45078;51.654;21.250;2022-10-16T05:14:29;15.75;;;8.70;;
59310;SDS011;45078;51.654;21.250;2022-10-16T05:16:55;15.30;;;7.55;;
59310;SDS011;45078;51.654;21.250;2022-10-16T05:19:21;14.98;;;8.30;;
59310;SDS011;45078;51.654;21.250;2022-10-16T05:21:47;17.42;;;8.27;;
59310;SDS011;45078;51.654;21.250;2022-10-16T05:24:13;14.85;;;8.85;;
59310;SDS011;45078;51.654;21.250;2022-10-16T05:26:39;25.08;;;9.40;;
59310;SDS011;45078;51.654;21.250;2022-10-16T05:29:04;16.08;;;8.73;;
59310;SDS011;45078;51.654;21.250;2022-10-16T05:31:30;15.80;;;9.40;;
59310;SDS011;45078;51.654;21.250;2022-10-16T05:33:58;13.07;;;8.13;;
59310;SDS011;45078;51.654;21.250;2022-10-16T05:36:24;17.45;;;8.48;;
59310;SDS011;45078;51.654;21.250;2022-10-16T05:38:50;12.65;;;7.18;;
59310;SDS011;45078;51.654;21.250;2022-10-16T05:41:16;16.67;;;8.68;;
59310;SDS011;45078;51.654;21.250;2022-10-16T05:43:46;14.82;;;7.68;;
59310;SDS011;45078;51.654;21.250;2022-10-16T05:46:13;17.38;;;8.45;;
59310;SDS011;45078;51.654;21.250;2022-10-16T05:48:39;13.52;;;7.43;;
59310;SDS011;45078;51.654;21.250;2022-10-16T05:51:05;14.57;;;8.55;;
59310;SDS011;45078;51.654;21.250;2022-10-16T05:53:34;14.13;;;8.07;;
59310;SDS011;45078;51.654;21.250;2022-10-16T05:56:01;14.05;;;8.13;;
59310;SDS011;45078;51.654;21.250;2022-10-16T05:58:29;13.80;;;8.32;;
59310;SDS011;45078;51.654;21.250;2022-10-16T06:00:58;13.27;;;7.60;;
59310;SDS011;45078;51.654;21.250;2022-10-16T06:03:32;15.77;;;7.40;;
59310;SDS011;45078;51.654;21.250;2022-10-16T06:05:58;14.90;;;7.43;;
59310;SDS011;45078;51.654;21.250;2022-10-16T06:08:24;15.55;;;8.27;;
59310;SDS011;45078;51.654;21.250;2022-10-16T06:11:03;10.10;;;5.90;;
59310;SDS011;45078;51.654;21.250;2022-10-16T06:13:29;10.25;;;6.60;;
59310;SDS011;45078;51.654;21.250;2022-10-16T06:15:56;13.90;;;8.05;;
59310;SDS011;45078;51.654;21.250;2022-10-16T06:18:23;12.40;;;6.90;;
59310;SDS011;45078;51.654;21.250;2022-10-16T06:20:49;12.10;;;7.30;;
59310;SDS011;45078;51.654;21.250;2022-10-16T06:23:15;12.98;;;7.70;;
59310;SDS011;45078;51.654;21.250;2022-10-16T06:25:41;13.50;;;7.47;;
59310;SDS011;45078;51.654;21.250;2022-10-16T06:28:07;13.55;;;7.25;;
59310;SDS011;45078;51.654;21.250;2022-10-16T06:30:33;10.63;;;6.80;;
59310;SDS011;45078;51.654;21.250;2022-10-16T06:32:58;11.30;;;6.93;;
59310;SDS011;45078;51.654;21.250;2022-10-16T06:35:24;11.57;;;7.20;;
59310;SDS011;45078;51.654;21.250;2022-10-16T06:37:52;11.68;;;6.88;;
59310;SDS011;45078;51.654;21.250;2022-10-16T06:40:18;10.88;;;6.65;;
59310;SDS011;45078;51.654;21.250;2022-10-16T06:42:44;16.02;;;7.10;;
59310;SDS011;45078;51.654;21.250;2022-10-16T06:45:10;8.65;;;5.88;;
59310;SDS011;45078;51.654;21.250;2022-10-16T06:47:36;12.52;;;7.88;;
59310;SDS011;45078;51.654;21.250;2022-10-16T06:50:02;10.05;;;6.38;;
59310;SDS011;45078;51.654;21.250;2022-10-16T06:52:28;13.70;;;7.55;;
59310;SDS011;45078;51.654;21.250;2022-10-16T06:54:54;15.25;;;6.65;;
59310;SDS011;45078;51.654;21.250;2022-10-16T06:57:20;18.58;;;7.32;;
59310;SDS011;45078;51.654;21.250;2022-10-16T06:59:46;11.27;;;7.05;;
59310;SDS011;45078;51.654;21.250;2022-10-16T07:02:12;11.38;;;6.35;;
59310;SDS011;45078;51.654;21.250;2022-10-16T07:04:38;12.25;;;6.85;;
59310;SDS011;45078;51.654;21.250;2022-10-16T07:07:04;12.43;;;7.00;;
59310;SDS011;45078;51.654;21.250;2022-10-16T07:09:29;12.90;;;7.38;;
59310;SDS011;45078;51.654;21.250;2022-10-16T07:11:55;10.93;;;6.20;;
59310;SDS011;45078;51.654;21.250;2022-10-16T07:14:21;10.88;;;6.75;;
59310;SDS011;45078;51.654;21.250;2022-10-16T07:16:47;11.35;;;6.80;;
59310;SDS011;45078;51.654;21.250;2022-10-16T07:19:13;9.82;;;6.18;;
59310;SDS011;45078;51.654;21.250;2022-10-16T07:21:40;9.65;;;6.20;;
59310;SDS011;45078;51.654;21.250;2022-10-16T07:24:11;11.65;;;6.82;;
59310;SDS011;45078;51.654;21.250;2022-10-16T07:26:38;12.88;;;6.18;;
59310;SDS011;45078;51.654;21.250;2022-10-16T07:29:06;13.07;;;6.78;;
59310;SDS011;45078;51.654;21.250;2022-10-16T07:31:38;12.10;;;5.50;;
59310;SDS011;45078;51.654;21.250;2022-10-16T07:34:05;8.65;;;5.57;;
59310;SDS011;45078;51.654;21.250;2022-10-16T07:36:31;9.68;;;5.07;;
59310;SDS011;45078;51.654;21.250;2022-10-16T07:38:56;8.52;;;5.57;;
59310;SDS011;45078;51.654;21.250;2022-10-16T07:41:22;13.73;;;7.28;;
59310;SDS011;45078;51.654;21.250;2022-10-16T07:43:49;10.38;;;5.90;;
59310;SDS011;45078;51.654;21.250;2022-10-16T07:46:16;12.32;;;7.13;;
59310;SDS011;45078;51.654;21.250;2022-10-16T07:48:44;17.80;;;7.10;;
59310;SDS011;45078;51.654;21.250;2022-10-16T07:51:12;16.90;;;7.57;;
59310;SDS011;45078;51.654;21.250;2022-10-16T07:53:49;10.93;;;6.88;;
59310;SDS011;45078;51.654;21.250;2022-10-16T07:56:16;13.25;;;6.50;;
59310;SDS011;45078;51.654;21.250;2022-10-16T07:58:42;11.30;;;7.00;;
59310;SDS011;45078;51.654;21.250;2022-10-16T08:01:10;13.18;;;7.07;;
59310;SDS011;45078;51.654;21.250;2022-10-16T08:03:38;12.57;;;6.65;;
59310;SDS011;45078;51.654;21.250;2022-10-16T08:06:06;11.80;;;7.07;;
59310;SDS011;45078;51.654;21.250;2022-10-16T08:08:32;10.77;;;6.53;;
59310;SDS011;45078;51.654;21.250;2022-10-16T08:10:58;13.88;;;6.57;;
59310;SDS011;45078;51.654;21.250;2022-10-16T08:13:24;12.23;;;6.55;;
59310;SDS011;45078;51.654;21.250;2022-10-16T08:15:50;10.90;;;5.68;;
59310;SDS011;45078;51.654;21.250;2022-10-16T08:18:15;13.73;;;6.18;;
59310;SDS011;45078;51.654;21.250;2022-10-16T08:20:42;16.92;;;6.85;;
59310;SDS011;45078;51.654;21.250;2022-10-16T08:23:09;8.77;;;4.80;;
59310;SDS011;45078;51.654;21.250;2022-10-16T08:25:36;9.32;;;5.72;;
59310;SDS011;45078;51.654;21.250;2022-10-16T08:28:06;9.40;;;5.55;;
59310;SDS011;45078;51.654;21.250;2022-10-16T08:30:33;7.20;;;4.32;;
59310;SDS011;45078;51.654;21.250;2022-10-16T08:32:59;9.32;;;5.60;;
59310;SDS011;45078;51.654;21.250;2022-10-16T08:35:25;16.67;;;6.47;;
59310;SDS011;45078;51.654;21.250;2022-10-16T08:37:51;11.00;;;6.05;;
59310;SDS011;45078;51.654;21.250;2022-10-16T08:40:24;11.30;;;6.10;;
59310;SDS011;45078;51.654;21.250;2022-10-16T08:48:43;10.05;;;5.68;;
59310;SDS011;45078;51.654;21.250;2022-10-16T08:51:12;13.75;;;5.90;;
59310;SDS011;45078;51.654;21.250;2022-10-16T08:53:55;10.65;;;5.90;;
59310;SDS011;45078;51.654;21.250;2022-10-16T08:56:23;13.88;;;6.97;;
59310;SDS011;45078;51.654;21.250;2022-10-16T08:58:50;9.32;;;5.00;;
59310;SDS011;45078;51.654;21.250;2022-10-16T09:01:18;9.55;;;4.53;;
59310;SDS011;45078;51.654;21.250;2022-10-16T09:22:45;5.72;;;3.78;;
59310;SDS011;45078;51.654;21.250;2022-10-16T09:25:15;9.63;;;5.50;;
59310;SDS011;45078;51.654;21.250;2022-10-16T09:27:44;12.57;;;5.35;;
59310;SDS011;45078;51.654;21.250;2022-10-16T09:30:13;8.68;;;5.15;;
59310;SDS011;45078;51.654;21.250;2022-10-16T09:32:41;10.35;;;5.97;;
59310;SDS011;45078;51.654;21.250;2022-10-16T09:35:13;10.13;;;5.30;;
59310;SDS011;45078;51.654;21.250;2022-10-16T09:37:45;9.88;;;5.95;;
59310;SDS011;45078;51.654;21.250;2022-10-16T09:40:23;7.72;;;5.15;;
59310;SDS011;45078;51.654;21.250;2022-10-16T09:42:52;12.93;;;5.25;;
59310;SDS011;45078;51.654;21.250;2022-10-16T09:45:23;10.13;;;5.65;;
59310;SDS011;45078;51.654;21.250;2022-10-16T09:47:49;9.23;;;5.38;;
59310;SDS011;45078;51.654;21.250;2022-10-16T09:53:05;9.23;;;4.57;;
59310;SDS011;45078;51.654;21.250;2022-10-16T09:55:48;9.45;;;5.45;;
59310;SDS011;45078;51.654;21.250;2022-10-16T09:58:15;10.23;;;5.70;;
59310;SDS011;45078;51.654;21.250;2022-10-16T10:00:41;12.98;;;5.30;;
59310;SDS011;45078;51.654;21.250;2022-10-16T10:03:16;9.18;;;5.70;;
59310;SDS011;45078;51.654;21.250;2022-10-16T10:06:07;12.48;;;5.85;;
59310;SDS011;45078;51.654;21.250;2022-10-16T10:08:41;10.07;;;5.70;;
59310;SDS011;45078;51.654;21.250;2022-10-16T10:11:17;10.27;;;4.85;;
59310;SDS011;45078;51.654;21.250;2022-10-16T10:13:42;9.20;;;5.47;;
59310;SDS011;45078;51.654;21.250;2022-10-16T10:16:08;9.70;;;5.63;;
59310;SDS011;45078;51.654;21.250;2022-10-16T10:18:34;9.32;;;5.55;;
59310;SDS011;45078;51.654;21.250;2022-10-16T10:21:01;7.65;;;4.80;;
59310;SDS011;45078;51.654;21.250;2022-10-16T10:23:28;11.00;;;5.45;;
59310;SDS011;45078;51.654;21.250;2022-10-16T10:40:07;9.43;;;5.55;;
59310;SDS011;45078;51.654;21.250;2022-10-16T10:45:27;9.98;;;5.13;;
59310;SDS011;45078;51.654;21.250;2022-10-16T10:51:13;5.95;;;3.75;;
59310;SDS011;45078;51.654;21.250;2022-10-16T10:56:37;9.40;;;4.93;;
59310;SDS011;45078;51.654;21.250;2022-10-16T11:07:19;7.38;;;4.13;;
59310;SDS011;45078;51.654;21.250;2022-10-16T11:09:52;5.88;;;3.90;;
59310;SDS011;45078;51.654;21.250;2022-10-16T11:12:27;8.02;;;4.53;;
59310;SDS011;45078;51.654;21.250;2022-10-16T11:15:02;7.63;;;4.75;;
59310;SDS011;45078;51.654;21.250;2022-10-16T11:20:26;6.68;;;3.65;;
59310;SDS011;45078;51.654;21.250;2022-10-16T11:26:19;7.85;;;4.63;;
59310;SDS011;45078;51.654;21.250;2022-10-16T11:28:49;6.32;;;4.45;;
59310;SDS011;45078;51.654;21.250;2022-10-16T11:39:34;9.77;;;4.28;;
59310;SDS011;45078;51.654;21.250;2022-10-16T11:50:13;5.45;;;3.25;;
59310;SDS011;45078;51.654;21.250;2022-10-16T11:55:34;11.70;;;4.63;;
59310;SDS011;45078;51.654;21.250;2022-10-16T12:00:37;5.82;;;3.83;;
59310;SDS011;45078;51.654;21.250;2022-10-16T12:03:14;6.03;;;4.30;;
59310;SDS011;45078;51.654;21.250;2022-10-16T12:08:33;5.25;;;3.50;;
59310;SDS011;45078;51.654;21.250;2022-10-16T12:11:07;6.43;;;3.65;;
59310;SDS011;45078;51.654;21.250;2022-10-16T12:13:52;6.20;;;2.88;;
59310;SDS011;45078;51.654;21.250;2022-10-16T12:16:29;6.95;;;3.83;;
59310;SDS011;45078;51.654;21.250;2022-10-16T12:19:10;6.47;;;3.80;;
59310;SDS011;45078;51.654;21.250;2022-10-16T12:24:05;4.90;;;3.20;;
59310;SDS011;45078;51.654;21.250;2022-10-16T12:26:32;7.80;;;4.10;;
59310;SDS011;45078;51.654;21.250;2022-10-16T12:31:51;6.38;;;3.92;;
59310;SDS011;45078;51.654;21.250;2022-10-16T12:34:21;6.45;;;4.00;;
59310;SDS011;45078;51.654;21.250;2022-10-16T12:39:43;7.05;;;3.95;;
59310;SDS011;45078;51.654;21.250;2022-10-16T12:44:58;5.63;;;2.88;;
59310;SDS011;45078;51.654;21.250;2022-10-16T12:49:57;6.30;;;3.90;;
59310;SDS011;45078;51.654;21.250;2022-10-16T12:52:42;7.75;;;3.97;;
59310;SDS011;45078;51.654;21.250;2022-10-16T12:55:15;7.13;;;4.10;;
59310;SDS011;45078;51.654;21.250;2022-10-16T13:00:25;8.02;;;3.35;;
59310;SDS011;45078;51.654;21.250;2022-10-16T13:05:49;9.52;;;4.45;;
59310;SDS011;45078;51.654;21.250;2022-10-16T13:14:03;7.85;;;3.40;;
59310;SDS011;45078;51.654;21.250;2022-10-16T13:19:42;11.35;;;4.65;;
59310;SDS011;45078;51.654;21.250;2022-10-16T13:22:24;6.80;;;3.85;;
59310;SDS011;45078;51.654;21.250;2022-10-16T13:28:05;8.10;;;4.07;;
59310;SDS011;45078;51.654;21.250;2022-10-16T13:38:17;6.00;;;4.40;;
59310;SDS011;45078;51.654;21.250;2022-10-16T13:40:52;7.25;;;3.95;;
59310;SDS011;45078;51.654;21.250;2022-10-16T13:43:21;6.43;;;3.75;;
59310;SDS011;45078;51.654;21.250;2022-10-16T13:45:59;6.72;;;4.00;;
59310;SDS011;45078;51.654;21.250;2022-10-16T13:48:32;6.75;;;4.32;;
59310;SDS011;45078;51.654;21.250;2022-10-16T13:51:03;7.32;;;4.15;;
59310;SDS011;45078;51.654;21.250;2022-10-16T13:53:34;7.65;;;4.45;;
59310;SDS011;45078;51.654;21.250;2022-10-16T13:56:02;7.35;;;4.47;;
59310;SDS011;45078;51.654;21.250;2022-10-16T13:58:36;7.53;;;4.57;;
59310;SDS011;45078;51.654;21.250;2022-10-16T14:01:06;7.10;;;3.95;;
59310;SDS011;45078;51.654;21.250;2022-10-16T14:03:59;9.55;;;4.75;;
59310;SDS011;45078;51.654;21.250;2022-10-16T14:06:28;7.68;;;4.47;;
59310;SDS011;45078;51.654;21.250;2022-10-16T14:08:57;11.38;;;4.95;;
59310;SDS011;45078;51.654;21.250;2022-10-16T14:11:33;11.93;;;5.32;;
59310;SDS011;45078;51.654;21.250;2022-10-16T14:14:11;8.32;;;4.20;;
59310;SDS011;45078;51.654;21.250;2022-10-16T14:16:38;7.18;;;4.32;;
59310;SDS011;45078;51.654;21.250;2022-10-16T14:19:40;6.00;;;3.70;;
59310;SDS011;45078;51.654;21.250;2022-10-16T14:21:59;8.57;;;4.82;;
59310;SDS011;45078;51.654;21.250;2022-10-16T14:26:58;6.72;;;4.53;;
59310;SDS011;45078;51.654;21.250;2022-10-16T14:29:25;10.60;;;5.25;;
59310;SDS011;45078;51.654;21.250;2022-10-16T14:31:56;7.20;;;4.05;;
59310;SDS011;45078;51.654;21.250;2022-10-16T14:34:27;8.02;;;4.82;;
59310;SDS011;45078;51.654;21.250;2022-10-16T14:36:57;9.07;;;4.88;;
59310;SDS011;45078;51.654;21.250;2022-10-16T14:39:33;9.98;;;5.15;;
59310;SDS011;45078;51.654;21.250;2022-10-16T14:42:00;7.28;;;4.22;;
59310;SDS011;45078;51.654;21.250;2022-10-16T14:44:28;12.05;;;5.00;;
59310;SDS011;45078;51.654;21.250;2022-10-16T14:46:56;10.45;;;4.90;;
59310;SDS011;45078;51.654;21.250;2022-10-16T14:49:24;8.35;;;4.57;;
59310;SDS011;45078;51.654;21.250;2022-10-16T14:51:53;8.32;;;5.22;;
59310;SDS011;45078;51.654;21.250;2022-10-16T14:54:18;7.60;;;5.00;;
59310;SDS011;45078;51.654;21.250;2022-10-16T14:56:49;7.57;;;4.38;;
59310;SDS011;45078;51.654;21.250;2022-10-16T14:59:30;9.00;;;5.13;;
59310;SDS011;45078;51.654;21.250;2022-10-16T15:02:02;10.27;;;4.85;;
59310;SDS011;45078;51.654;21.250;2022-10-16T15:04:53;8.10;;;5.35;;
59310;SDS011;45078;51.654;21.250;2022-10-16T15:07:19;7.53;;;5.03;;
59310;SDS011;45078;51.654;21.250;2022-10-16T15:09:45;7.47;;;4.70;;
59310;SDS011;45078;51.654;21.250;2022-10-16T15:12:11;8.07;;;4.60;;
59310;SDS011;45078;51.654;21.250;2022-10-16T15:14:37;9.82;;;5.78;;
59310;SDS011;45078;51.654;21.250;2022-10-16T15:17:03;13.27;;;5.78;;
59310;SDS011;45078;51.654;21.250;2022-10-16T15:19:29;16.50;;;5.15;;
59310;SDS011;45078;51.654;21.250;2022-10-16T15:21:56;14.07;;;5.57;;
59310;SDS011;45078;51.654;21.250;2022-10-16T15:24:21;7.50;;;4.95;;
59310;SDS011;45078;51.654;21.250;2022-10-16T15:26:47;12.82;;;5.07;;
59310;SDS011;45078;51.654;21.250;2022-10-16T15:29:14;11.50;;;5.93;;
59310;SDS011;45078;51.654;21.250;2022-10-16T15:31:40;11.48;;;4.97;;
59310;SDS011;45078;51.654;21.250;2022-10-16T15:34:10;8.73;;;5.32;;
59310;SDS011;45078;51.654;21.250;2022-10-16T15:36:38;8.27;;;4.93;;
59310;SDS011;45078;51.654;21.250;2022-10-16T15:39:04;7.82;;;5.15;;
59310;SDS011;45078;51.654;21.250;2022-10-16T15:41:41;8.13;;;4.88;;
59310;SDS011;45078;51.654;21.250;2022-10-16T15:44:07;8.07;;;5.22;;
59310;SDS011;45078;51.654;21.250;2022-10-16T15:46:34;10.20;;;5.18;;
59310;SDS011;45078;51.654;21.250;2022-10-16T15:49:01;9.77;;;5.45;;
59310;SDS011;45078;51.654;21.250;2022-10-16T15:51:27;9.75;;;5.10;;
59310;SDS011;45078;51.654;21.250;2022-10-16T15:53:55;12.70;;;5.60;;
59310;SDS011;45078;51.654;21.250;2022-10-16T15:56:22;10.45;;;6.20;;
59310;SDS011;45078;51.654;21.250;2022-10-16T15:58:50;10.05;;;5.05;;
59310;SDS011;45078;51.654;21.250;2022-10-16T16:01:17;18.45;;;5.63;;
59310;SDS011;45078;51.654;21.250;2022-10-16T16:03:43;8.75;;;5.65;;
59310;SDS011;45078;51.654;21.250;2022-10-16T16:06:10;11.30;;;6.03;;
59310;SDS011;45078;51.654;21.250;2022-10-16T16:08:37;10.85;;;5.28;;
59310;SDS011;45078;51.654;21.250;2022-10-16T16:11:05;9.13;;;5.03;;
59310;SDS011;45078;51.654;21.250;2022-10-16T16:13:36;8.35;;;5.28;;
59310;SDS011;45078;51.654;21.250;2022-10-16T16:16:06;9.18;;;5.93;;
59310;SDS011;45078;51.654;21.250;2022-10-16T16:18:33;10.32;;;6.07;;
59310;SDS011;45078;51.654;21.250;2022-10-16T16:20:59;9.45;;;5.90;;
59310;SDS011;45078;51.654;21.250;2022-10-16T16:23:24;11.85;;;6.28;;
59310;SDS011;45078;51.654;21.250;2022-10-16T16:26:33;11.20;;;5.90;;
59310;SDS011;45078;51.654;21.250;2022-10-16T16:28:59;9.02;;;5.10;;
59310;SDS011;45078;51.654;21.250;2022-10-16T16:31:27;8.45;;;5.40;;
59310;SDS011;45078;51.654;21.250;2022-10-16T16:33:53;9.25;;;5.88;;
59310;SDS011;45078;51.654;21.250;2022-10-16T16:36:22;12.45;;;5.72;;
59310;SDS011;45078;51.654;21.250;2022-10-16T16:38:48;11.60;;;6.30;;
59310;SDS011;45078;51.654;21.250;2022-10-16T16:41:17;9.63;;;5.95;;
59310;SDS011;45078;51.654;21.250;2022-10-16T16:43:44;15.43;;;6.03;;
59310;SDS011;45078;51.654;21.250;2022-10-16T16:46:12;11.80;;;5.72;;
59310;SDS011;45078;51.654;21.250;2022-10-16T16:48:39;11.90;;;6.30;;
59310;SDS011;45078;51.654;21.250;2022-10-16T16:51:06;8.70;;;5.82;;
59310;SDS011;45078;51.654;21.250;2022-10-16T16:53:35;19.15;;;5.60;;
59310;SDS011;45078;51.654;21.250;2022-10-16T16:56:02;12.98;;;6.25;;
59310;SDS011;45078;51.654;21.250;2022-10-16T16:58:32;11.38;;;6.38;;
59310;SDS011;45078;51.654;21.250;2022-10-16T17:00:58;10.65;;;6.43;;
59310;SDS011;45078;51.654;21.250;2022-10-16T17:03:27;11.15;;;6.10;;
59310;SDS011;45078;51.654;21.250;2022-10-16T17:08:39;11.43;;;6.68;;
59310;SDS011;45078;51.654;21.250;2022-10-16T17:11:06;14.75;;;7.03;;
59310;SDS011;45078;51.654;21.250;2022-10-16T17:13:38;10.70;;;6.15;;
59310;SDS011;45078;51.654;21.250;2022-10-16T17:16:05;12.52;;;6.20;;
59310;SDS011;45078;51.654;21.250;2022-10-16T17:18:32;11.65;;;6.93;;